createdAt,value
2023-01-13T00:00:02.487Z,14.43
2023-01-13T00:01:22.738Z,14.35
2023-01-13T00:02:28.504Z,13.30
2023-01-13T00:03:33.183Z,14.27
2023-01-13T00:04:37.028Z,13.98
2023-01-13T00:05:40.356Z,13.48
2023-01-13T00:06:55.174Z,13.57
2023-01-13T00:09:21.596Z,14.20
2023-01-13T00:10:49.701Z,13.10
2023-01-13T00:11:58.723Z,14.10
2023-01-13T00:13:09.048Z,13.75
2023-01-13T00:14:14.714Z,13.45
2023-01-13T00:15:23.288Z,14.48
2023-01-13T00:16:45.189Z,13.93
2023-01-13T00:17:53.316Z,14.38
2023-01-13T00:19:01.704Z,14.45
2023-01-13T00:20:07.990Z,14.10
2023-01-13T00:21:25.807Z,13.20
2023-01-13T00:22:32.574Z,14.02
2023-01-13T00:23:44.574Z,13.57
2023-01-13T00:24:48.430Z,13.57
2023-01-13T00:25:59.128Z,13.52
2023-01-13T00:27:04.554Z,12.93
2023-01-13T00:28:10.429Z,13.32
2023-01-13T00:29:25.383Z,12.85
2023-01-13T00:30:30.493Z,12.23
2023-01-13T00:31:39.481Z,13.60
2023-01-13T00:32:49.294Z,12.38
2023-01-13T00:33:59.969Z,13.25
2023-01-13T00:35:05.485Z,14.25
2023-01-13T00:36:11.891Z,14.13
2023-01-13T00:37:19.239Z,13.38
2023-01-13T00:39:12.670Z,12.63
2023-01-13T00:40:25.874Z,13.43
2023-01-13T00:41:32.624Z,13.02
2023-01-13T00:44:11.899Z,12.30
2023-01-13T00:45:23.300Z,13.35
2023-01-13T00:46:34.851Z,13.43
2023-01-13T00:47:48.024Z,13.18
2023-01-13T00:48:54.368Z,14.07
2023-01-13T00:50:00.048Z,13.75
2023-01-13T00:51:12.657Z,13.77
2023-01-13T00:52:17.565Z,13.32
2023-01-13T00:53:26.173Z,13.45
2023-01-13T00:54:35.043Z,13.70
2023-01-13T00:55:42.505Z,14.23
2023-01-13T00:56:48.489Z,13.73
2023-01-13T00:57:54.356Z,13.63
2023-01-13T00:59:03.921Z,14.07
2023-01-13T01:00:14.535Z,14.30
2023-01-13T01:01:28.164Z,13.68
2023-01-13T01:02:36.027Z,14.77
2023-01-13T01:03:41.071Z,14.30
2023-01-13T01:04:51.197Z,13.25
2023-01-13T01:06:05.639Z,13.15
2023-01-13T01:07:11.512Z,13.55
2023-01-13T01:08:17.935Z,13.68
2023-01-13T01:09:33.797Z,13.43
2023-01-13T01:10:38.366Z,14.70
2023-01-13T01:11:47.266Z,13.10
2023-01-13T01:12:52.565Z,14.23
2023-01-13T01:14:02.956Z,13.50
2023-01-13T01:15:10.339Z,14.25
2023-01-13T01:16:23.081Z,13.73
2023-01-13T01:17:34.284Z,13.13
2023-01-13T01:18:44.952Z,14.32
2023-01-13T01:19:54.438Z,13.10
2023-01-13T01:21:11.607Z,12.65
2023-01-13T01:22:16.237Z,13.43
2023-01-13T01:23:21.134Z,14.00
2023-01-13T01:24:33.652Z,14.50
2023-01-13T01:25:44.113Z,14.23
2023-01-13T01:26:51.016Z,14.57
2023-01-13T01:28:02.328Z,13.90
2023-01-13T01:29:08.276Z,14.38
2023-01-13T01:30:18.342Z,12.23
2023-01-13T01:31:37.756Z,13.45
2023-01-13T01:32:47.205Z,13.68
2023-01-13T01:34:01.629Z,14.50
2023-01-13T01:35:21.811Z,13.95
2023-01-13T01:36:45.179Z,13.50
2023-01-13T01:37:50.885Z,13.93
2023-01-13T01:39:03.468Z,13.20
2023-01-13T01:40:13.303Z,13.52
2023-01-13T01:41:27.075Z,13.50
2023-01-13T01:42:49.765Z,13.77
2023-01-13T01:43:59.868Z,13.55
2023-01-13T01:45:38.210Z,13.43
2023-01-13T01:46:49.631Z,13.63
2023-01-13T01:48:14.930Z,14.25
2023-01-13T01:49:35.069Z,13.68
2023-01-13T01:50:41.431Z,13.50
2023-01-13T01:52:11.227Z,14.70
2023-01-13T01:53:36.774Z,13.85
2023-01-13T01:55:26.711Z,13.50
2023-01-13T01:56:38.188Z,11.10
2023-01-13T01:58:24.243Z,14.10
2023-01-13T01:59:36.221Z,13.38
2023-01-13T02:00:46.575Z,13.55
2023-01-13T02:01:54.799Z,14.23
2023-01-13T02:03:14.624Z,13.50
2023-01-13T02:04:33.513Z,13.07
2023-01-13T02:05:42.542Z,13.57
2023-01-13T02:06:48.213Z,14.40
2023-01-13T02:08:04.632Z,14.10
2023-01-13T02:09:14.864Z,14.15
2023-01-13T02:10:30.462Z,13.32
2023-01-13T02:11:56.925Z,13.10
2023-01-13T02:13:07.524Z,13.93
2023-01-13T02:14:11.330Z,13.85
2023-01-13T02:16:00.767Z,13.65
2023-01-13T02:17:34.323Z,13.30
2023-01-13T02:18:57.841Z,13.40
2023-01-13T02:20:18.647Z,13.20
2023-01-13T02:21:57.627Z,13.98
2023-01-13T02:23:46.369Z,13.18
2023-01-13T02:25:43.157Z,13.20
2023-01-13T02:27:18.691Z,13.20
2023-01-13T02:29:12.620Z,13.73
2023-01-13T02:30:58.658Z,12.45
2023-01-13T02:32:27.041Z,13.18
2023-01-13T02:34:02.931Z,13.48
2023-01-13T02:35:31.258Z,15.38
2023-01-13T02:37:02.959Z,14.15
2023-01-13T02:38:17.229Z,14.15
2023-01-13T02:39:45.267Z,14.77
2023-01-13T02:41:27.142Z,13.93
2023-01-13T02:43:10.039Z,13.68
2023-01-13T02:44:25.309Z,12.30
2023-01-13T02:45:44.928Z,13.43
2023-01-13T02:47:17.524Z,13.10
2023-01-13T02:48:30.875Z,12.93
2023-01-13T02:49:41.428Z,12.40
2023-01-13T02:50:55.841Z,13.90
2023-01-13T02:52:09.132Z,14.48
2023-01-13T02:53:25.531Z,12.77
2023-01-13T02:54:43.605Z,13.35
2023-01-13T02:56:05.909Z,13.13
2023-01-13T02:57:19.865Z,14.02
2023-01-13T02:58:28.806Z,14.10
2023-01-13T02:59:57.113Z,13.10
2023-01-13T03:01:03.918Z,12.38
2023-01-13T03:02:19.032Z,13.50
2023-01-13T03:03:30.687Z,12.77
2023-01-13T03:04:58.265Z,13.48
2023-01-13T03:06:30.434Z,12.50
2023-01-13T03:08:10.382Z,13.65
2023-01-13T03:09:29.633Z,13.82
2023-01-13T03:11:03.057Z,13.32
2023-01-13T03:12:44.689Z,13.38
2023-01-13T03:14:04.701Z,11.70
2023-01-13T03:15:31.029Z,12.18
2023-01-13T03:16:49.684Z,12.55
2023-01-13T03:18:46.944Z,12.52
2023-01-13T03:20:08.451Z,12.90
2023-01-13T03:21:32.131Z,12.27
2023-01-13T03:23:03.384Z,12.75
2023-01-13T03:24:38.860Z,12.07
2023-01-13T03:25:54.498Z,13.02
2023-01-13T03:27:12.579Z,13.30
2023-01-13T03:28:35.341Z,13.60
2023-01-13T03:29:49.477Z,13.27
2023-01-13T03:31:06.089Z,13.68
2023-01-13T03:32:46.196Z,12.00
2023-01-13T03:34:02.128Z,12.07
2023-01-13T03:36:43.997Z,11.98
2023-01-13T03:38:08.999Z,10.27
2023-01-13T03:39:27.210Z,11.07
2023-01-13T03:40:39.229Z,10.95
2023-01-13T03:41:50.647Z,11.43
2023-01-13T03:43:23.498Z,12.00
2023-01-13T03:44:42.574Z,11.18
2023-01-13T03:45:52.366Z,11.73
2023-01-13T03:47:00.897Z,11.95
2023-01-13T03:48:10.366Z,11.77
2023-01-13T03:49:19.892Z,10.70
2023-01-13T03:50:32.428Z,10.98
2023-01-13T03:51:40.845Z,10.65
2023-01-13T03:53:07.724Z,11.52
2023-01-13T03:54:24.462Z,11.45
2023-01-13T03:55:40.508Z,11.75
2023-01-13T03:56:57.879Z,10.20
2023-01-13T03:58:16.380Z,11.63
2023-01-13T03:59:25.330Z,10.50
2023-01-13T04:00:38.908Z,10.65
2023-01-13T04:02:20.845Z,10.18
2023-01-13T04:03:53.073Z,9.88
2023-01-13T04:05:06.200Z,10.27
2023-01-13T04:06:46.127Z,10.80
2023-01-13T04:08:05.523Z,10.02
2023-01-13T04:09:22.998Z,10.63
2023-01-13T04:10:43.677Z,10.23
2023-01-13T04:11:58.267Z,10.27
2023-01-13T04:13:15.517Z,10.00
2023-01-13T04:14:24.643Z,10.32
2023-01-13T04:15:41.367Z,9.65
2023-01-13T04:16:51.488Z,9.32
2023-01-13T04:18:05.121Z,10.18
2023-01-13T04:19:18.727Z,10.48
2023-01-13T04:20:25.524Z,10.13
2023-01-13T04:21:34.967Z,10.32
2023-01-13T04:22:46.961Z,9.80
2023-01-13T04:24:21.052Z,10.88
2023-01-13T04:25:30.194Z,10.52
2023-01-13T04:26:39.196Z,10.23
2023-01-13T04:27:45.330Z,10.30
2023-01-13T04:28:55.523Z,12.38
2023-01-13T04:30:03.425Z,10.02
2023-01-13T04:31:10.196Z,10.43
2023-01-13T04:32:18.980Z,10.95
2023-01-13T04:33:29.561Z,10.35
2023-01-13T04:34:32.718Z,11.77
2023-01-13T04:35:40.044Z,10.32
2023-01-13T04:36:45.895Z,11.43
2023-01-13T04:37:52.983Z,10.45
2023-01-13T04:38:56.365Z,11.27
2023-01-13T04:40:09.901Z,10.85
2023-01-13T04:41:16.462Z,10.68
2023-01-13T04:42:23.734Z,10.90
2023-01-13T04:43:34.533Z,10.35
2023-01-13T04:44:41.317Z,11.15
2023-01-13T04:45:47.844Z,11.13
2023-01-13T04:46:52.208Z,10.90
2023-01-13T04:47:57.389Z,11.00
2023-01-13T04:49:01.305Z,10.20
2023-01-13T04:50:09.008Z,10.95
2023-01-13T04:51:17.409Z,9.90
2023-01-13T04:52:25.027Z,9.57
2023-01-13T04:53:32.102Z,10.23
2023-01-13T04:54:40.125Z,10.32
2023-01-13T04:55:50.864Z,10.77
2023-01-13T04:57:08.617Z,11.27
2023-01-13T04:58:15.758Z,10.52
2023-01-13T04:59:25.359Z,10.38
2023-01-13T05:00:47.033Z,10.50
2023-01-13T05:01:50.947Z,10.73
2023-01-13T05:02:58.049Z,10.48
2023-01-13T05:04:12.913Z,10.75
2023-01-13T05:05:22.730Z,10.40
2023-01-13T05:06:38.833Z,10.25
2023-01-13T05:07:45.341Z,10.68
2023-01-13T05:08:55.639Z,10.98
2023-01-13T05:09:59.327Z,10.75
2023-01-13T05:11:33.322Z,11.48
2023-01-13T05:13:00.181Z,12.35
2023-01-13T05:14:24.815Z,10.07
2023-01-13T05:15:59.547Z,10.38
2023-01-13T05:17:15.785Z,10.27
2023-01-13T05:18:27.212Z,10.13
2023-01-13T05:19:42.067Z,11.15
2023-01-13T05:20:53.926Z,11.80
2023-01-13T05:22:20.162Z,10.50
2023-01-13T05:23:48.333Z,10.30
2023-01-13T05:25:15.293Z,10.82
2023-01-13T05:26:20.405Z,11.10
2023-01-13T05:27:27.703Z,10.50
2023-01-13T05:28:36.331Z,10.63
2023-01-13T05:30:51.240Z,9.73
2023-01-13T05:31:58.011Z,10.15
2023-01-13T05:33:19.089Z,10.10
2023-01-13T05:34:27.508Z,10.38
2023-01-13T05:35:42.713Z,10.57
2023-01-13T05:36:50.198Z,11.00
2023-01-13T05:37:59.410Z,10.48
2023-01-13T05:39:53.403Z,10.27
2023-01-13T05:41:20.787Z,10.00
2023-01-13T05:42:43.452Z,10.35
2023-01-13T05:43:55.918Z,10.00
2023-01-13T05:45:03.319Z,10.55
2023-01-13T05:46:13.455Z,9.98
2023-01-13T05:47:23.266Z,10.50
2023-01-13T05:48:37.839Z,10.45
2023-01-13T05:49:42.317Z,10.35
2023-01-13T05:50:51.198Z,10.57
2023-01-13T05:51:55.258Z,9.95
2023-01-13T05:53:02.286Z,9.85
2023-01-13T05:54:10.978Z,10.43
2023-01-13T05:55:22.002Z,9.93
2023-01-13T05:56:27.278Z,10.38
2023-01-13T05:57:31.595Z,9.82
2023-01-13T05:58:36.062Z,10.13
2023-01-13T05:59:40.672Z,10.20
2023-01-13T06:00:53.767Z,10.75
2023-01-13T06:02:00.128Z,10.05
2023-01-13T06:03:06.885Z,10.88
2023-01-13T06:04:10.225Z,11.05
2023-01-13T06:05:19.796Z,11.38
2023-01-13T06:06:29.522Z,11.93
2023-01-13T06:07:36.848Z,9.88
2023-01-13T06:09:07.713Z,10.70
2023-01-13T06:10:10.694Z,8.82
2023-01-13T06:11:17.824Z,11.27
2023-01-13T06:12:24.024Z,11.50
2023-01-13T06:13:37.843Z,12.02
2023-01-13T06:14:53.342Z,9.77
2023-01-13T06:16:07.143Z,10.02
2023-01-13T06:17:19.906Z,9.82
2023-01-13T06:18:38.358Z,10.43
2023-01-13T06:21:19.802Z,8.82
2023-01-13T06:22:58.868Z,9.38
2023-01-13T06:26:25.038Z,9.00
2023-01-13T06:27:37.121Z,8.85
2023-01-13T06:28:44.571Z,8.95
2023-01-13T06:29:49.585Z,9.25
2023-01-13T06:31:00.423Z,8.88
2023-01-13T06:32:42.339Z,9.30
2023-01-13T06:35:23.126Z,8.70
2023-01-13T08:11:09.056Z,7.03
2023-01-13T08:12:30.928Z,6.95
2023-01-13T08:15:19.468Z,6.60
2023-01-13T08:17:02.152Z,7.97
2023-01-13T08:18:08.010Z,6.70
2023-01-13T08:19:39.619Z,7.10
2023-01-13T08:20:57.327Z,6.88
2023-01-13T08:22:37.158Z,7.40
2023-01-13T08:23:52.289Z,7.28
2023-01-13T08:25:16.494Z,6.97
2023-01-13T08:26:28.942Z,6.97
2023-01-13T08:27:35.464Z,7.13
2023-01-13T08:28:49.083Z,6.82
2023-01-13T08:30:10.739Z,6.93
2023-01-13T08:31:27.350Z,6.53
2023-01-13T08:35:04.736Z,7.40
2023-01-13T08:41:20.424Z,6.63
2023-01-13T09:01:33.348Z,6.75
2023-01-13T09:04:42.236Z,7.53
2023-01-13T09:05:56.197Z,7.85
2023-01-13T09:08:48.082Z,6.70
2023-01-13T09:11:59.479Z,8.23
2023-01-13T09:13:14.959Z,9.38
2023-01-13T09:14:22.843Z,6.93
2023-01-13T09:15:25.909Z,7.13
2023-01-13T09:16:28.577Z,7.18
2023-01-13T09:17:31.268Z,7.30
2023-01-13T09:18:33.802Z,7.32
2023-01-13T09:19:37.143Z,6.38
2023-01-13T09:20:44.744Z,7.10
2023-01-13T09:21:47.595Z,6.13
2023-01-13T09:22:51.528Z,6.72
2023-01-13T09:23:57.462Z,6.30
2023-01-13T09:25:04.764Z,7.15
2023-01-13T09:26:10.429Z,6.88
2023-01-13T09:27:16.206Z,5.95
2023-01-13T09:28:22.595Z,7.03
2023-01-13T09:29:27.964Z,6.75
2023-01-13T09:30:32.779Z,7.38
2023-01-13T09:31:36.110Z,7.72
2023-01-13T09:32:51.471Z,6.90
2023-01-13T09:36:32.448Z,6.72
2023-01-13T09:37:43.751Z,7.03
2023-01-13T09:38:51.821Z,6.30
2023-01-13T09:40:02.314Z,7.55
2023-01-13T09:41:45.575Z,6.82
2023-01-13T09:43:48.814Z,6.53
2023-01-13T09:45:19.117Z,6.97
2023-01-13T09:46:58.581Z,6.57
2023-01-13T09:48:53.682Z,5.93
2023-01-13T09:50:17.334Z,7.10
2023-01-13T09:53:13.429Z,6.65
2023-01-13T10:14:32.960Z,5.88
2023-01-13T10:51:14.531Z,6.15
2023-01-13T10:57:03.969Z,6.75
2023-01-13T11:16:08.437Z,7.10
2023-01-13T12:15:37.623Z,8.38
2023-01-13T12:27:12.965Z,9.20
2023-01-13T12:30:04.174Z,7.85
2023-01-13T12:32:07.210Z,8.93
2023-01-13T12:37:59.714Z,7.72
2023-01-13T12:40:00.176Z,8.20
2023-01-13T12:42:28.503Z,9.10
2023-01-13T12:45:52.238Z,9.05
2023-01-13T12:47:58.211Z,9.23
2023-01-13T12:49:54.195Z,8.55
2023-01-13T12:59:23.755Z,9.88
2023-01-13T13:48:28.095Z,9.03
2023-01-13T13:50:07.665Z,9.85
2023-01-13T13:51:28.481Z,9.23
2023-01-13T13:53:02.226Z,9.45
2023-01-13T13:54:22.414Z,9.13
2023-01-13T13:57:48.904Z,9.70
2023-01-13T13:59:26.538Z,9.25
2023-01-13T14:01:05.553Z,8.95
2023-01-13T14:02:36.996Z,9.55
2023-01-13T14:04:05.590Z,9.40
2023-01-13T14:05:37.139Z,9.18
2023-01-13T14:06:54.750Z,10.25
2023-01-13T14:10:04.042Z,9.63
2023-01-13T14:11:57.941Z,9.30
2023-01-13T14:13:18.157Z,10.00
2023-01-13T14:14:33.268Z,10.70
2023-01-13T14:16:58.917Z,9.18
2023-01-13T14:18:20.083Z,9.35
2023-01-13T14:19:35.981Z,14.02
2023-01-13T14:20:42.252Z,9.85
2023-01-13T14:21:52.168Z,9.90
2023-01-13T14:23:04.684Z,9.93
2023-01-13T14:24:20.716Z,12.10
2023-01-13T14:25:50.983Z,10.02
2023-01-13T14:27:22.869Z,9.85
2023-01-13T14:28:44.669Z,11.80
2023-01-13T14:30:05.036Z,12.05
2023-01-13T14:31:19.611Z,11.68
2023-01-13T14:32:36.892Z,10.77
2023-01-13T14:33:46.512Z,11.98
2023-01-13T14:35:12.767Z,10.95
2023-01-13T14:36:44.581Z,9.77
2023-01-13T14:38:05.865Z,9.82
2023-01-13T14:39:44.230Z,9.95
2023-01-13T14:42:49.094Z,9.80
2023-01-13T14:44:21.583Z,9.20
2023-01-13T14:47:10.087Z,10.02
2023-01-13T14:50:13.221Z,11.05
2023-01-13T14:52:07.478Z,8.93
2023-01-13T15:00:26.839Z,9.95
2023-01-13T15:09:55.281Z,9.90
2023-01-13T15:16:14.831Z,16.35
2023-01-13T15:21:43.205Z,12.75
2023-01-13T18:02:26.944Z,11.90
2023-01-13T18:05:22.917Z,14.38
2023-01-13T18:06:27.800Z,12.57
2023-01-13T18:07:38.834Z,11.55
2023-01-13T18:08:43.377Z,13.38
2023-01-13T18:13:31.173Z,10.55
2023-01-13T18:14:46.349Z,11.88
2023-01-13T18:16:19.133Z,11.82
2023-01-13T18:17:59.242Z,12.10
2023-01-13T18:19:42.970Z,12.13
2023-01-13T18:22:50.409Z,11.73
2023-01-13T18:29:27.523Z,12.30
2023-01-13T18:30:36.938Z,12.48
2023-01-13T18:31:47.822Z,13.25
2023-01-13T18:35:01.669Z,13.00
2023-01-13T18:36:13.127Z,12.40
2023-01-13T18:37:22.778Z,12.35
2023-01-13T18:38:27.220Z,12.98
2023-01-13T18:39:43.018Z,13.25
2023-01-13T18:47:24.195Z,10.45
2023-01-13T18:48:32.087Z,13.10
2023-01-13T18:49:37.905Z,12.65
2023-01-13T18:50:42.527Z,13.10
2023-01-13T18:51:51.558Z,12.48
2023-01-13T18:53:02.712Z,11.60
2023-01-13T18:54:07.705Z,11.20
2023-01-13T18:55:11.798Z,11.80
2023-01-13T18:56:16.500Z,12.55
2023-01-13T18:57:21.858Z,15.48
2023-01-13T18:58:38.502Z,11.95
2023-01-13T18:59:44.147Z,13.55
2023-01-13T19:00:47.611Z,12.82
2023-01-13T19:01:52.634Z,11.68
2023-01-13T19:04:23.049Z,11.52
2023-01-13T19:05:41.409Z,11.82
2023-01-13T19:06:53.946Z,12.00
2023-01-13T19:08:00.029Z,14.57
2023-01-13T19:09:11.725Z,11.45
2023-01-13T19:10:18.221Z,11.82
2023-01-13T19:11:26.399Z,11.75
2023-01-13T19:12:36.197Z,12.07
2023-01-13T19:13:45.030Z,11.85
2023-01-13T19:14:52.833Z,12.05
2023-01-13T19:15:58.090Z,11.60
2023-01-13T19:17:19.109Z,11.50
2023-01-13T19:18:27.205Z,11.38
2023-01-13T19:19:32.649Z,11.85
2023-01-13T19:20:42.947Z,12.20
2023-01-13T19:21:49.208Z,12.90
2023-01-13T19:23:00.256Z,13.20
2023-01-13T19:24:13.193Z,11.90
2023-01-13T19:25:19.705Z,11.85
2023-01-13T19:28:22.896Z,12.30
2023-01-13T19:29:27.381Z,11.90
2023-01-13T19:30:31.119Z,12.82
2023-01-13T19:31:37.483Z,12.32
2023-01-13T19:32:43.988Z,11.25
2023-01-13T19:33:48.169Z,11.52
2023-01-13T19:34:55.325Z,11.82
2023-01-13T19:35:59.345Z,13.75
2023-01-13T19:37:07.017Z,12.32
2023-01-13T19:38:10.910Z,11.88
2023-01-13T19:39:14.508Z,12.00
2023-01-13T19:40:20.402Z,27.30
2023-01-13T19:41:41.961Z,12.35
2023-01-13T19:43:04.289Z,11.80
2023-01-13T19:44:30.248Z,12.02
2023-01-13T19:45:35.798Z,12.35
2023-01-13T19:46:42.406Z,11.60
2023-01-13T19:49:13.233Z,12.07
2023-01-13T19:50:20.774Z,12.40
2023-01-13T19:51:31.809Z,11.82
2023-01-13T19:52:36.492Z,10.73
2023-01-13T19:53:42.864Z,12.27
2023-01-13T19:54:50.767Z,12.00
2023-01-13T19:56:00.373Z,11.70
2023-01-13T19:57:07.808Z,11.40
2023-01-13T19:58:11.051Z,11.75
2023-01-13T19:59:24.675Z,12.00
2023-01-13T20:00:46.338Z,13.05
2023-01-13T20:02:53.284Z,11.35
2023-01-13T20:04:03.625Z,10.55
2023-01-13T20:05:09.922Z,11.75
2023-01-13T20:06:15.560Z,11.60
2023-01-13T20:07:22.733Z,11.55
2023-01-13T20:08:25.812Z,12.00
2023-01-13T20:09:36.577Z,10.27
2023-01-13T20:10:40.984Z,12.13
2023-01-13T20:11:45.273Z,10.63
2023-01-13T20:12:52.373Z,12.52
2023-01-13T20:14:05.345Z,11.88
2023-01-13T20:15:09.614Z,10.05
2023-01-13T20:16:18.784Z,11.57
2023-01-13T20:17:30.701Z,11.00
2023-01-13T20:18:41.903Z,11.55
2023-01-13T20:19:48.018Z,10.85
2023-01-13T20:20:54.456Z,10.57
2023-01-13T20:21:59.314Z,11.40
2023-01-13T20:23:08.510Z,11.85
2023-01-13T20:24:37.112Z,11.40
2023-01-13T20:25:46.191Z,11.02
2023-01-13T20:26:57.299Z,10.48
2023-01-13T20:28:09.224Z,10.93
2023-01-13T20:29:15.779Z,10.52
2023-01-13T20:30:26.488Z,10.70
2023-01-13T20:31:33.144Z,10.93
2023-01-13T20:32:39.152Z,11.90
2023-01-13T20:33:44.823Z,11.07
2023-01-13T20:34:55.980Z,11.35
2023-01-13T20:36:00.531Z,11.95
2023-01-13T20:37:06.500Z,11.25
2023-01-13T20:38:10.960Z,10.48
2023-01-13T20:39:25.235Z,10.77
2023-01-13T20:40:30.726Z,10.60
2023-01-13T20:41:53.005Z,10.82
2023-01-13T20:42:59.345Z,10.60
2023-01-13T20:44:03.976Z,10.93
2023-01-13T20:45:08.386Z,11.95
2023-01-13T20:46:21.106Z,11.15
2023-01-13T20:47:31.469Z,11.07
2023-01-13T20:48:37.165Z,11.90
2023-01-13T20:49:50.879Z,10.90
2023-01-13T20:51:02.124Z,11.15
2023-01-13T20:52:10.916Z,12.35
2023-01-13T20:53:15.152Z,10.85
2023-01-13T20:54:26.914Z,10.93
2023-01-13T20:55:30.252Z,10.95
2023-01-13T20:56:35.050Z,12.48
2023-01-13T20:57:58.185Z,12.05
2023-01-13T20:59:02.791Z,11.60
2023-01-13T21:00:15.469Z,12.25
2023-01-13T21:01:19.798Z,11.55
2023-01-13T21:02:24.910Z,11.93
2023-01-13T21:03:28.426Z,11.88
2023-01-13T21:04:34.478Z,13.25
2023-01-13T21:05:38.997Z,12.57
2023-01-13T21:06:43.794Z,12.20
2023-01-13T21:07:48.499Z,11.45
2023-01-13T21:08:56.093Z,12.05
2023-01-13T21:09:59.192Z,13.60
2023-01-13T21:11:08.798Z,12.27
2023-01-13T21:12:35.065Z,12.50
2023-01-13T21:13:59.169Z,12.70
2023-01-13T21:15:25.694Z,11.57
2023-01-13T21:16:31.185Z,12.65
2023-01-13T21:17:57.624Z,11.95
2023-01-13T21:19:11.710Z,12.23
2023-01-13T21:20:19.115Z,14.02
2023-01-13T21:21:22.960Z,11.93
2023-01-13T21:22:31.862Z,12.27
2023-01-13T21:23:39.675Z,11.45
2023-01-13T21:24:47.517Z,12.75
2023-01-13T21:25:53.986Z,12.20
2023-01-13T21:27:01.024Z,12.20
2023-01-13T21:28:08.026Z,12.52
2023-01-13T21:29:13.429Z,14.90
2023-01-13T21:30:18.208Z,12.23
2023-01-13T21:31:21.578Z,12.55
2023-01-13T21:32:25.382Z,12.50
2023-01-13T21:33:32.081Z,12.38
2023-01-13T21:34:35.707Z,12.85
2023-01-13T21:35:41.869Z,12.43
2023-01-13T21:36:46.038Z,13.32
2023-01-13T21:37:52.154Z,12.45
2023-01-13T21:39:00.568Z,12.20
2023-01-13T21:40:07.378Z,12.20
2023-01-13T21:41:14.595Z,12.90
2023-01-13T21:42:37.888Z,12.65
2023-01-13T21:43:59.621Z,12.48
2023-01-13T21:45:27.152Z,11.88
2023-01-13T21:46:49.021Z,12.25
2023-01-13T21:47:52.724Z,12.88
2023-01-13T21:48:57.197Z,13.30
2023-01-13T21:50:02.935Z,12.75
2023-01-13T21:51:11.090Z,12.60
2023-01-13T21:52:19.280Z,12.20
2023-01-13T21:53:23.200Z,12.38
2023-01-13T21:54:27.113Z,12.48
2023-01-13T21:55:30.766Z,12.93
2023-01-13T21:56:36.089Z,12.20
2023-01-13T21:57:40.328Z,12.98
2023-01-13T21:58:46.212Z,13.35
2023-01-13T21:59:57.671Z,12.93
2023-01-13T22:01:04.834Z,12.65
2023-01-13T22:02:31.301Z,13.38
2023-01-13T22:03:54.327Z,11.70
2023-01-13T22:05:04.829Z,12.38
2023-01-13T22:06:08.332Z,12.60
2023-01-13T22:07:12.220Z,12.63
2023-01-13T22:08:19.140Z,12.18
2023-01-13T22:09:22.091Z,12.02
2023-01-13T22:10:30.067Z,12.20
2023-01-13T22:11:37.271Z,11.85
2023-01-13T22:12:44.137Z,12.63
2023-01-13T22:14:05.540Z,12.88
2023-01-13T22:15:12.133Z,12.25
2023-01-13T22:16:18.384Z,13.25
2023-01-13T22:17:29.848Z,12.57
2023-01-13T22:18:35.094Z,12.60
2023-01-13T22:19:42.362Z,12.63
2023-01-13T22:20:49.028Z,12.90
2023-01-13T22:21:53.547Z,13.63
2023-01-13T22:22:59.767Z,12.50
2023-01-13T22:24:07.851Z,13.38
2023-01-13T22:25:15.410Z,13.35
2023-01-13T22:26:21.475Z,12.57
2023-01-13T22:27:30.508Z,13.25
2023-01-13T22:28:41.021Z,13.57
2023-01-13T22:29:45.372Z,13.20
2023-01-13T22:30:55.660Z,13.85
2023-01-13T22:32:05.277Z,12.90
2023-01-13T22:33:08.136Z,13.50
2023-01-13T22:34:14.275Z,14.25
2023-01-13T22:35:21.491Z,12.63
2023-01-13T22:36:25.961Z,12.43
2023-01-13T22:37:31.724Z,13.68
2023-01-13T22:38:35.300Z,12.63
2023-01-13T22:39:41.780Z,12.82
2023-01-13T22:40:46.124Z,12.98
2023-01-13T22:41:54.924Z,13.75
2023-01-13T22:42:59.027Z,12.13
2023-01-13T22:44:10.291Z,13.45
2023-01-13T22:45:17.235Z,12.30
2023-01-13T22:46:30.124Z,13.02
2023-01-13T22:47:34.143Z,13.18
2023-01-13T22:48:41.122Z,12.30
2023-01-13T22:50:06.626Z,12.13
2023-01-13T22:51:21.621Z,12.52
2023-01-13T22:52:29.260Z,11.48
2023-01-13T22:53:34.900Z,11.60
2023-01-13T22:54:47.310Z,11.57
2023-01-13T22:56:05.465Z,12.00
2023-01-13T22:57:11.054Z,11.82
2023-01-13T22:58:16.294Z,12.77
2023-01-13T22:59:22.880Z,11.38
2023-01-13T23:00:27.382Z,10.18
2023-01-13T23:01:33.499Z,11.73
2023-01-13T23:02:39.980Z,12.13
2023-01-13T23:03:46.819Z,11.02
2023-01-13T23:04:50.934Z,11.65
2023-01-13T23:05:59.373Z,12.18
2023-01-13T23:07:05.717Z,11.63
2023-01-13T23:08:10.560Z,12.43
2023-01-13T23:09:16.056Z,12.57
2023-01-13T23:10:21.581Z,11.82
2023-01-13T23:11:28.463Z,11.40
2023-01-13T23:12:31.951Z,12.02
2023-01-13T23:13:40.426Z,11.38
2023-01-13T23:14:45.162Z,11.50
2023-01-13T23:15:53.252Z,12.18
2023-01-13T23:16:58.220Z,11.93
2023-01-13T23:18:03.365Z,12.15
2023-01-13T23:19:09.345Z,11.40
2023-01-13T23:20:12.825Z,12.85
2023-01-13T23:21:24.755Z,12.98
2023-01-13T23:22:31.655Z,11.55
2023-01-13T23:23:42.250Z,12.27
2023-01-13T23:24:50.640Z,11.75
2023-01-13T23:26:00.300Z,11.55
2023-01-13T23:27:36.759Z,11.85
2023-01-13T23:28:40.378Z,11.55
2023-01-13T23:29:44.670Z,11.60
2023-01-13T23:30:53.525Z,11.73
2023-01-13T23:32:03.266Z,12.63
2023-01-13T23:33:06.460Z,12.45
2023-01-13T23:34:13.249Z,12.68
2023-01-13T23:35:20.947Z,11.77
2023-01-13T23:36:29.259Z,12.32
2023-01-13T23:37:32.885Z,12.48
2023-01-13T23:38:36.381Z,12.70
2023-01-13T23:39:40.157Z,13.02
2023-01-13T23:40:48.014Z,12.82
2023-01-13T23:41:52.210Z,13.40
2023-01-13T23:43:01.179Z,13.77
2023-01-13T23:44:09.629Z,13.60
2023-01-13T23:45:13.481Z,13.00
2023-01-13T23:46:18.498Z,13.88
2023-01-13T23:47:25.137Z,13.60
2023-01-13T23:48:33.172Z,13.80
2023-01-13T23:49:36.811Z,13.48
2023-01-13T23:50:43.767Z,14.00
2023-01-13T23:51:50.070Z,13.02
2023-01-13T23:52:53.758Z,13.10
2023-01-13T23:53:59.019Z,13.50
2023-01-13T23:55:08.870Z,13.73
2023-01-13T23:56:21.022Z,12.60
2023-01-13T23:57:29.176Z,13.93
2023-01-13T23:58:34.317Z,13.38
2023-01-13T23:59:38.725Z,13.95
